Time;durP1;ratioP1;P1;durP2;ratioP2;P2;SDS_P1;SDS_P2;PMS_P1;PMS_P2;Temp;Humidity;BMP_temperature;BMP_pressure;BME280_temperature;BME280_humidity;BME280_pressure;Samples;Min_cycle;Max_cycle;Signal;HPM_P1;HPM_P2
2022/12/01 00:01:00;;;;;;;18.62;8.93;;;;;;;1.82;100.00;100095.41;4235948;33;20047;-69
2022/12/01 00:03:29;;;;;;;20.02;11.07;;;;;;;1.66;100.00;100098.91;4232920;33;20409;-69
2022/12/01 00:06:05;;;;;;;19.55;9.90;;;;;;;1.59;100.00;100095.25;4251741;33;20045;-70
2022/12/01 00:08:33;;;;;;;14.30;10.07;;;;;;;1.93;100.00;100094.22;4252495;33;20054;-69
2022/12/01 00:11:04;;;;;;;16.67;9.07;;;;;;;1.81;100.00;100091.91;4254288;33;20421;-69
2022/12/01 00:13:31;;;;;;;14.83;9.50;;;;;;;2.07;100.00;100093.56;4255029;33;20050;-69
2022/12/01 00:16:08;;;;;;;19.23;9.43;;;;;;;2.00;100.00;100087.25;4253620;33;20093;-68
2022/12/01 00:18:34;;;;;;;16.62;9.23;;;;;;;2.11;100.00;100084.25;4255179;33;20042;-70
2022/12/01 00:21:01;;;;;;;15.77;9.60;;;;;;;1.99;100.00;100091.75;4254043;33;20073;-69
2022/12/01 00:23:27;;;;;;;16.15;8.73;;;;;;;1.74;100.00;100053.75;4253311;33;20043;-69
2022/12/01 00:25:53;;;;;;;17.62;8.80;;;;;;;1.97;100.00;100083.09;4255136;33;20054;-69
2022/12/01 00:28:20;;;;;;;12.95;8.13;;;;;;;1.69;100.00;100077.34;4255060;33;20038;-69
2022/12/01 00:30:46;;;;;;;13.52;7.72;;;;;;;1.74;100.00;100056.41;4255176;33;20046;-70
2022/12/01 00:33:12;;;;;;;11.95;7.32;;;;;;;1.93;100.00;100089.78;4254822;33;20354;-70
2022/12/01 00:35:39;;;;;;;16.77;7.82;;;;;;;1.84;100.00;100092.59;4251575;33;20081;-69
2022/12/01 00:38:05;;;;;;;10.70;7.72;;;;;;;1.93;100.00;100084.47;4253696;33;20058;-70
2022/12/01 00:40:32;;;;;;;13.43;7.72;;;;;;;1.90;100.00;100089.25;4254995;33;20056;-70
2022/12/01 00:42:58;;;;;;;19.67;8.07;;;;;;;1.60;100.00;100057.09;4252649;33;20111;-70
2022/12/01 00:45:25;;;;;;;13.07;8.50;;;;;;;1.97;100.00;100079.62;4224460;34;20053;-69
2022/12/01 00:47:51;;;;;;;14.52;7.90;;;;;;;1.79;100.00;100083.28;4222556;34;20031;-69
2022/12/01 00:50:18;;;;;;;12.93;8.00;;;;;;;2.09;100.00;100070.31;4224518;34;20093;-70
2022/12/01 00:52:44;;;;;;;16.52;7.72;;;;;;;2.10;100.00;100071.13;4223849;34;20178;-70
2022/12/01 00:55:10;;;;;;;14.70;8.35;;;;;;;1.96;100.00;100064.69;4223989;34;20047;-70
2022/12/01 00:57:37;;;;;;;20.17;9.00;;;;;;;1.84;100.00;100076.66;4224139;34;20426;-70
2022/12/01 03:01:20;;;;;;;22.20;10.38;;;;;;;2.37;100.00;100033.53;4723381;27;20054;-69
2022/12/01 03:04:19;;;;;;;21.27;10.52;;;;;;;2.33;100.00;100031.38;4252290;33;20039;-70
2022/12/01 03:07:06;;;;;;;15.18;8.90;;;;;;;2.31;100.00;100033.37;4188892;34;20090;-69
2022/12/01 03:09:59;;;;;;;20.67;10.73;;;;;;;2.33;100.00;100026.91;4183171;34;20040;-69
2022/12/01 03:12:31;;;;;;;24.70;10.82;;;;;;;2.13;100.00;100037.09;4183839;34;20085;-70
2022/12/01 03:15:27;;;;;;;21.35;10.57;;;;;;;2.14;100.00;100036.09;4184293;34;20080;-69
2022/12/01 03:18:15;;;;;;;21.08;11.88;;;;;;;1.87;100.00;100000.13;4182717;34;20040;-69
2022/12/01 03:21:08;;;;;;;22.87;10.93;;;;;;;2.04;100.00;100032.78;4182282;34;20119;-69
2022/12/01 03:23:38;;;;;;;24.30;11.10;;;;;;;1.98;100.00;100001.59;4183506;34;20513;-70
2022/12/01 03:26:09;;;;;;;24.90;11.50;;;;;;;1.82;100.00;100002.47;4210071;34;20055;-69
2022/12/01 03:28:41;;;;;;;21.08;11.02;;;;;;;2.17;100.00;100022.47;4194491;34;20200;-70
2022/12/01 03:31:16;;;;;;;16.65;9.60;;;;;;;2.04;100.00;100038.09;4186280;34;20074;-70
2022/12/01 03:33:47;;;;;;;21.33;10.48;;;;;;;2.20;100.00;100037.22;4196765;34;20086;-69
2022/12/01 03:36:41;;;;;;;21.20;11.30;;;;;;;2.34;100.00;100033.84;4211516;34;20184;-72
2022/12/01 03:39:13;;;;;;;21.40;10.88;;;;;;;2.49;100.00;100039.31;4211118;34;20100;-70
2022/12/01 03:41:52;;;;;;;21.48;10.60;;;;;;;2.26;100.00;100035.72;4209753;34;20059;-69
2022/12/01 03:44:21;;;;;;;19.02;10.38;;;;;;;2.23;100.00;100026.25;4237303;33;20541;-69
2022/12/01 03:47:00;;;;;;;24.37;12.55;;;;;;;2.06;100.00;100028.16;4239669;33;20419;-69
2022/12/01 03:49:27;;;;;;;21.37;12.10;;;;;;;2.09;100.00;100035.78;4238686;33;20076;-69
2022/12/01 03:51:57;;;;;;;23.23;10.98;;;;;;;1.89;100.00;100002.63;4240745;33;20069;-69
2022/12/01 03:54:53;;;;;;;26.40;11.38;;;;;;;2.30;100.00;100021.94;4238648;33;20026;-70
2022/12/01 03:57:32;;;;;;;18.70;10.48;;;;;;;2.18;100.00;100029.41;4256010;33;20462;-69
2022/12/01 03:59:59;;;;;;;22.55;11.15;;;;;;;2.24;100.00;100021.78;4269600;33;20101;-69
2022/12/01 04:02:27;;;;;;;23.05;11.50;;;;;;;2.17;100.00;100030.44;4268470;33;20079;-68
2022/12/01 04:04:54;;;;;;;24.23;11.35;;;;;;;2.17;100.00;100027.78;4268498;33;20046;-69
2022/12/01 04:07:21;;;;;;;25.83;12.43;;;;;;;2.18;100.00;100018.78;4268349;33;20038;-69
2022/12/01 04:09:47;;;;;;;23.60;11.93;;;;;;;1.99;100.00;100003.25;4268913;33;20072;-69
2022/12/01 04:12:29;;;;;;;24.60;12.27;;;;;;;2.10;100.00;100025.97;4269273;33;20072;-69
2022/12/01 04:14:57;;;;;;;28.42;12.37;;;;;;;2.15;100.00;100034.25;4269158;33;20053;-69
2022/12/01 04:17:24;;;;;;;24.63;11.45;;;;;;;2.06;100.00;100027.31;4268971;33;20152;-69
2022/12/01 04:19:51;;;;;;;27.85;12.27;;;;;;;2.14;100.00;100028.13;4268240;33;20038;-69
2022/12/01 04:22:25;;;;;;;26.30;13.95;;;;;;;2.20;100.00;100025.78;4266981;33;20046;-69
2022/12/01 04:24:52;;;;;;;27.00;13.30;;;;;;;2.21;100.00;100028.25;4268892;33;20049;-69
2022/12/01 04:27:19;;;;;;;23.05;11.80;;;;;;;2.32;100.00;100024.41;4269106;33;20072;-69
2022/12/01 04:29:46;;;;;;;28.00;13.57;;;;;;;2.15;100.00;100019.16;4269112;33;20038;-69
2022/12/01 04:32:12;;;;;;;29.37;14.35;;;;;;;2.02;100.00;99997.59;4268256;33;20075;-69
2022/12/01 04:34:39;;;;;;;28.27;13.98;;;;;;;2.07;100.00;100032.44;4267630;33;20061;-69
2022/12/01 04:37:06;;;;;;;30.05;13.57;;;;;;;2.07;100.00;100032.44;4267854;33;20075;-70
2022/12/01 04:39:33;;;;;;;23.80;12.50;;;;;;;2.15;100.00;100035.09;4278644;33;20045;-69
2022/12/01 04:42:00;;;;;;;34.47;15.35;;;;;;;2.07;100.00;100027.13;4277676;33;20064;-69
2022/12/01 04:44:26;;;;;;;31.00;12.63;;;;;;;2.04;100.00;100042.59;4266351;33;20083;-69
2022/12/01 04:46:53;;;;;;;32.22;16.10;;;;;;;1.98;100.00;100021.03;4268890;33;20050;-69
2022/12/01 04:49:20;;;;;;;31.55;14.63;;;;;;;1.97;100.00;100007.91;4268360;33;20334;-69
2022/12/01 04:51:47;;;;;;;27.80;12.77;;;;;;;2.02;100.00;100029.47;4238274;33;20522;-70
2022/12/01 04:54:15;;;;;;;34.78;14.25;;;;;;;1.87;100.00;100016.06;4237697;33;20373;-68
2022/12/01 04:56:41;;;;;;;25.50;12.73;;;;;;;1.90;100.00;100036.13;4237657;33;20097;-70
2022/12/01 04:59:14;;;;;;;26.65;12.15;;;;;;;1.74;100.00;100037.84;4238380;33;20362;-69
2022/12/01 05:01:41;;;;;;;29.52;14.55;;;;;;;1.84;100.00;100055.41;4238286;33;20043;-69
2022/12/01 05:04:12;;;;;;;28.70;14.20;;;;;;;1.77;100.00;100010.94;4236870;33;20380;-69
2022/12/01 05:06:39;;;;;;;28.35;13.93;;;;;;;2.02;100.00;100034.78;4236802;33;20068;-69
2022/12/01 05:09:06;;;;;;;27.77;13.35;;;;;;;2.04;100.00;100048.72;4237916;33;20031;-69
2022/12/01 05:11:33;;;;;;;32.25;14.27;;;;;;;2.16;100.00;100047.37;4237629;33;20057;-70
2022/12/01 05:14:00;;;;;;;33.65;15.07;;;;;;;1.99;100.00;100019.19;4238287;33;20042;-69
2022/12/01 05:16:30;;;;;;;31.52;14.18;;;;;;;2.16;100.00;100039.41;4208315;34;20057;-69
2022/12/01 05:21:46;;;;;;;33.88;15.75;;;;;;;2.08;100.00;100052.72;4196818;34;20119;-69
2022/12/01 05:24:14;;;;;;;31.25;14.18;;;;;;;2.03;100.00;100049.75;4208300;34;20105;-69
2022/12/01 05:26:42;;;;;;;34.05;14.55;;;;;;;1.82;100.00;100013.09;4209097;34;20057;-69
2022/12/01 05:29:10;;;;;;;34.35;15.48;;;;;;;2.16;100.00;100047.37;4210139;34;20109;-68
2022/12/01 05:31:36;;;;;;;34.38;14.82;;;;;;;2.17;100.00;100029.59;4212179;34;20078;-68
2022/12/01 05:34:02;;;;;;;34.35;14.40;;;;;;;2.34;100.00;100046.34;4222328;34;20056;-69
2022/12/01 05:36:30;;;;;;;33.15;15.27;;;;;;;2.21;100.00;100028.25;4214510;34;20047;-70
2022/12/01 05:38:56;;;;;;;31.15;14.02;;;;;;;2.01;100.00;100014.56;4215620;34;20454;-69
2022/12/01 05:41:23;;;;;;;31.20;13.90;;;;;;;1.91;100.00;100049.25;4223523;34;20370;-69
2022/12/01 05:43:49;;;;;;;32.13;15.23;;;;;;;1.87;100.00;100049.75;4212294;34;20338;-68
2022/12/01 05:46:16;;;;;;;31.55;15.65;;;;;;;1.95;100.00;100034.63;4222500;33;20499;-69
2022/12/01 05:48:49;;;;;;;36.33;15.25;;;;;;;2.01;100.00;100049.09;4253814;33;20042;-69
2022/12/01 05:51:16;;;;;;;31.67;15.60;;;;;;;1.79;100.00;100045.28;4260305;33;20067;-68
2022/12/01 05:53:43;;;;;;;34.78;13.90;;;;;;;1.96;100.00;100046.09;4265963;33;20130;-68
2022/12/01 05:56:10;;;;;;;33.92;15.00;;;;;;;2.09;100.00;100051.72;4266609;33;20049;-68
2022/12/01 05:58:36;;;;;;;24.80;12.98;;;;;;;2.17;100.00;100043.72;4267825;33;20046;-69
2022/12/01 06:01:03;;;;;;;32.17;14.90;;;;;;;1.73;100.00;100001.62;4267746;33;20054;-69
2022/12/01 06:03:30;;;;;;;40.65;16.10;;;;;;;2.14;100.00;100040.59;4267797;33;20360;-69
2022/12/01 06:05:57;;;;;;;29.12;12.02;;;;;;;1.92;100.00;100007.59;4265814;33;20368;-69
2022/12/01 06:08:23;;;;;;;29.75;13.62;;;;;;;1.98;100.00;100018.38;4268114;33;20085;-69
2022/12/01 06:10:50;;;;;;;28.50;13.20;;;;;;;2.17;100.00;100051.69;4267335;33;20054;-70
2022/12/01 06:13:16;;;;;;;26.15;13.55;;;;;;;2.10;100.00;100053.34;4266648;33;20046;-69
2022/12/01 06:15:43;;;;;;;25.85;12.98;;;;;;;2.03;100.00;100052.41;4265922;33;20384;-69
2022/12/01 06:18:09;;;;;;;28.98;14.05;;;;;;;2.13;100.00;100053.03;4267355;33;20034;-69
2022/12/01 06:20:36;;;;;;;31.90;14.75;;;;;;;2.14;100.00;100060.00;4267570;33;20083;-69
2022/12/01 06:23:02;;;;;;;24.87;11.45;;;;;;;1.99;100.00;100061.69;4265299;33;20322;-69
2022/12/01 06:25:29;;;;;;;25.00;12.43;;;;;;;1.98;100.00;100029.00;4266948;33;20110;-69
2022/12/01 06:27:56;;;;;;;20.67;11.60;;;;;;;2.03;100.00;100063.03;4251145;33;20978;-69
2022/12/01 06:30:23;;;;;;;25.60;12.20;;;;;;;2.26;100.00;100046.34;4250212;33;20143;-69
2022/12/01 06:32:49;;;;;;;24.15;12.23;;;;;;;2.26;100.00;100064.97;4250954;33;20423;-69
2022/12/01 06:35:16;;;;;;;25.52;12.82;;;;;;;2.22;100.00;100061.81;4250842;33;20109;-69
2022/12/01 06:37:42;;;;;;;21.40;11.15;;;;;;;2.22;100.00;100055.66;4250797;33;20026;-69
2022/12/01 06:40:10;;;;;;;25.70;12.18;;;;;;;2.21;100.00;100054.03;4249732;33;20050;-69
2022/12/01 06:42:36;;;;;;;28.95;14.63;;;;;;;2.21;100.00;100062.00;4251393;33;20046;-69
2022/12/01 06:45:03;;;;;;;21.87;12.30;;;;;;;2.07;100.00;100069.62;4251921;33;20046;-69
2022/12/01 06:47:29;;;;;;;27.67;13.52;;;;;;;2.14;100.00;100065.31;4251200;33;20416;-69
2022/12/01 06:49:56;;;;;;;30.85;13.23;;;;;;;2.01;100.00;100070.34;4249764;33;20038;-69
2022/12/01 06:52:22;;;;;;;27.67;13.02;;;;;;;2.20;100.00;100073.59;4250592;33;20072;-69
2022/12/01 06:54:49;;;;;;;24.48;12.13;;;;;;;2.08;100.00;100050.06;4250874;33;20082;-70
2022/12/01 06:57:15;;;;;;;26.30;13.77;;;;;;;2.15;100.00;100074.97;4237494;33;20051;-69
2022/12/01 06:59:41;;;;;;;33.42;14.45;;;;;;;2.16;100.00;100073.94;4238696;33;20079;-69
2022/12/01 07:02:10;;;;;;;29.77;13.75;;;;;;;1.98;100.00;100038.81;4237425;33;20081;-70
2022/12/01 07:04:37;;;;;;;32.38;14.35;;;;;;;2.36;100.00;100084.19;4239329;33;20170;-69
2022/12/01 07:07:06;;;;;;;29.45;13.43;;;;;;;2.30;100.00;100077.75;4224294;33;20173;-69
2022/12/01 07:09:33;;;;;;;36.55;15.88;;;;;;;2.66;100.00;100073.78;4225269;33;20038;-70
2022/12/01 07:11:59;;;;;;;25.17;13.85;;;;;;;2.39;100.00;100051.13;4223189;33;20038;-68
2022/12/01 07:14:26;;;;;;;25.45;14.27;;;;;;;2.33;100.00;100049.97;4224950;33;20047;-70
2022/12/01 07:16:53;;;;;;;28.12;13.43;;;;;;;2.44;100.00;100072.72;4225400;34;20039;-70
2022/12/01 07:19:19;;;;;;;25.37;13.02;;;;;;;2.43;100.00;100079.88;4222984;34;20064;-70
2022/12/01 07:21:46;;;;;;;29.75;14.77;;;;;;;1.84;100.00;100056.25;4222878;34;20035;-69
2022/12/01 07:24:13;;;;;;;28.60;13.40;;;;;;;1.93;100.00;100057.03;4223455;34;20055;-70
2022/12/01 07:26:40;;;;;;;26.83;12.43;;;;;;;2.13;100.00;100076.94;4225383;34;20047;-70
2022/12/01 07:29:10;;;;;;;26.62;12.10;;;;;;;2.32;100.00;100085.56;4210002;34;20043;-69
2022/12/01 07:31:37;;;;;;;28.02;12.98;;;;;;;2.41;100.00;100087.19;4222862;34;20034;-70
2022/12/01 07:34:04;;;;;;;27.90;13.73;;;;;;;2.33;100.00;100092.50;4222644;34;20047;-69
2022/12/01 07:36:31;;;;;;;26.45;13.10;;;;;;;2.46;100.00;100084.84;4225617;33;20801;-70
2022/12/01 07:38:57;;;;;;;26.05;11.55;;;;;;;2.52;100.00;100089.47;4234844;33;20043;-69
2022/12/01 07:41:24;;;;;;;24.77;12.77;;;;;;;2.56;100.00;100086.47;4232160;33;20039;-69
2022/12/01 07:43:51;;;;;;;22.98;12.02;;;;;;;2.31;100.00;100059.97;4237969;33;20043;-69
2022/12/01 07:46:20;;;;;;;24.02;13.62;;;;;;;2.54;100.00;100097.28;4237073;33;20414;-70
2022/12/01 07:48:47;;;;;;;22.58;12.30;;;;;;;2.34;100.00;100060.44;4239021;33;20082;-70
2022/12/01 07:51:15;;;;;;;24.17;11.32;;;;;;;2.48;100.00;100092.66;4237940;33;20026;-70
2022/12/01 07:53:44;;;;;;;26.25;12.80;;;;;;;2.42;100.00;100091.50;4239035;33;20035;-69
2022/12/01 07:56:10;;;;;;;22.33;11.30;;;;;;;2.45;100.00;100099.13;4236298;33;20438;-69
2022/12/01 07:58:37;;;;;;;18.58;10.38;;;;;;;2.18;100.00;100071.94;4238152;33;20098;-70
2022/12/01 08:01:12;;;;;;;22.58;12.27;;;;;;;2.49;100.00;100095.13;4238447;33;20049;-70
2022/12/01 08:03:40;;;;;;;20.33;11.52;;;;;;;2.31;100.00;100102.47;4223184;34;20046;-69
2022/12/01 08:06:07;;;;;;;19.55;10.15;;;;;;;2.32;100.00;100104.16;4239373;33;20421;-69
2022/12/01 08:08:35;;;;;;;21.80;11.90;;;;;;;2.32;100.00;100098.84;4268979;33;20470;-70
2022/12/01 08:11:05;;;;;;;23.87;12.80;;;;;;;2.61;100.00;100103.56;4265046;33;20659;-70
2022/12/01 08:13:31;;;;;;;23.92;11.63;;;;;;;2.58;100.00;100103.09;4266306;33;20061;-69
2022/12/01 08:15:57;;;;;;;27.27;12.43;;;;;;;2.51;100.00;100103.75;4265518;33;20062;-70
2022/12/01 08:18:24;;;;;;;28.83;12.85;;;;;;;2.37;100.00;100075.22;4267038;33;20096;-70
2022/12/01 08:20:54;;;;;;;21.25;12.02;;;;;;;2.41;100.00;100097.81;4250200;33;20038;-70
2022/12/01 08:23:21;;;;;;;23.48;12.77;;;;;;;2.49;100.00;100105.78;4253847;33;20401;-70
2022/12/01 08:25:47;;;;;;;19.95;11.68;;;;;;;2.29;100.00;100100.00;4250932;33;20084;-69
2022/12/01 08:28:14;;;;;;;23.75;11.75;;;;;;;2.33;100.00;100073.91;4252737;33;20053;-70
2022/12/01 08:30:40;;;;;;;22.58;11.50;;;;;;;2.48;100.00;100104.09;4252825;33;20027;-69
2022/12/01 08:33:07;;;;;;;21.15;11.50;;;;;;;2.39;100.00;100099.81;4237865;33;20064;-70
2022/12/01 08:35:35;;;;;;;18.50;11.05;;;;;;;2.40;100.00;100096.16;4238262;33;20051;-71
2022/12/01 08:38:02;;;;;;;23.10;12.52;;;;;;;2.71;100.00;100116.66;4236385;33;20038;-70
2022/12/01 08:40:29;;;;;;;23.87;10.88;;;;;;;2.53;100.00;100117.72;4226520;33;20399;-70
2022/12/01 08:42:56;;;;;;;23.75;12.05;;;;;;;2.36;100.00;100116.94;4237535;33;20382;-70
2022/12/01 08:45:22;;;;;;;20.45;10.90;;;;;;;2.47;100.00;100090.97;4236690;33;20358;-70
2022/12/01 08:47:49;;;;;;;22.65;11.80;;;;;;;2.83;100.00;100117.94;4236011;33;20599;-69
2022/12/01 08:50:16;;;;;;;19.95;10.73;;;;;;;2.50;100.00;100117.22;4235419;33;20042;-73
2022/12/01 08:52:42;;;;;;;22.08;11.12;;;;;;;2.79;100.00;100116.62;4248006;33;20072;-74
2022/12/01 08:55:09;;;;;;;18.85;10.27;;;;;;;2.51;100.00;100092.31;4250597;33;20103;-73
2022/12/01 08:57:35;;;;;;;19.10;9.95;;;;;;;2.33;100.00;100095.16;4250795;33;20046;-73
2022/12/01 09:00:02;;;;;;;22.70;10.55;;;;;;;2.70;100.00;100117.69;4250004;33;20063;-73
2022/12/01 09:02:29;;;;;;;19.33;10.10;;;;;;;2.59;100.00;100120.72;4249813;33;20105;-72
2022/12/01 09:04:55;;;;;;;18.35;10.30;;;;;;;2.72;100.00;100128.97;4251289;33;20101;-73
2022/12/01 09:07:22;;;;;;;23.58;12.00;;;;;;;2.82;100.00;100121.59;4251245;33;20030;-73
2022/12/01 09:09:49;;;;;;;18.77;10.48;;;;;;;2.79;100.00;100121.94;4248961;33;20073;-73
2022/12/01 09:12:16;;;;;;;21.98;10.15;;;;;;;2.82;100.00;100116.28;4247211;33;20066;-73
2022/12/01 09:14:48;;;;;;;30.62;11.10;;;;;;;2.42;100.00;100075.53;4234215;33;20191;-72
2022/12/01 09:17:16;;;;;;;22.58;11.10;;;;;;;2.65;100.00;100115.53;4235394;33;20050;-74
2022/12/01 09:19:42;;;;;;;20.80;10.10;;;;;;;2.74;100.00;100108.34;4234147;33;20353;-73
2022/12/01 09:22:10;;;;;;;23.33;11.93;;;;;;;2.72;100.00;100111.16;4235797;33;20653;-73
2022/12/01 09:24:37;;;;;;;18.58;9.90;;;;;;;2.52;100.00;100073.53;4234690;33;20109;-74
2022/12/01 09:27:04;;;;;;;23.38;10.98;;;;;;;2.66;100.00;100095.06;4232828;33;20042;-74
2022/12/01 09:29:30;;;;;;;17.62;9.93;;;;;;;2.66;100.00;100089.75;4234277;33;20179;-74
2022/12/01 09:31:59;;;;;;;21.30;11.32;;;;;;;2.73;100.00;100101.37;4238805;33;20093;-74
2022/12/01 09:34:26;;;;;;;21.85;10.50;;;;;;;2.83;100.00;100091.34;4248641;33;20196;-74
2022/12/01 09:36:57;;;;;;;18.85;9.32;;;;;;;2.82;100.00;100094.19;4250180;33;20046;-74
2022/12/01 09:39:23;;;;;;;19.00;10.02;;;;;;;3.00;100.00;100089.44;4236147;33;20520;-74
2022/12/01 09:41:58;;;;;;;14.15;8.07;;;;;;;2.86;100.00;100088.34;4236247;33;20042;-72
2022/12/01 09:44:46;;;;;;;15.27;8.02;;;;;;;2.70;100.00;100053.84;4222400;33;20156;-73
2022/12/01 09:47:29;;;;;;;19.55;8.95;;;;;;;3.09;100.00;100084.91;4242071;33;20412;-75
2022/12/01 09:50:05;;;;;;;17.42;8.77;;;;;;;3.04;100.00;100087.25;4244854;33;20051;-74
2022/12/01 09:52:39;;;;;;;14.23;7.00;;;;;;;3.03;100.00;100069.62;4235732;33;20342;-74
2022/12/01 09:55:12;;;;;;;13.13;6.68;;;;;;;2.65;100.00;100037.56;4233990;33;20052;-74
2022/12/01 09:57:39;;;;;;;10.23;6.72;;;;;;;2.68;100.00;100051.38;4212152;33;20391;-73
2022/12/01 10:00:13;;;;;;;14.15;7.18;;;;;;;2.78;100.00;100064.44;4219372;33;20130;-74
2022/12/01 10:02:51;;;;;;;10.82;6.87;;;;;;;3.00;100.00;100059.31;4221379;33;20043;-75
2022/12/01 10:05:23;;;;;;;11.52;7.75;;;;;;;3.20;100.00;100073.03;4221694;33;20039;-74
2022/12/01 10:08:02;;;;;;;14.57;7.10;;;;;;;3.05;100.00;100046.34;4223671;33;20047;-74
2022/12/01 10:10:33;;;;;;;14.80;6.68;;;;;;;3.28;100.00;100068.47;4217516;33;20100;-74
2022/12/01 10:13:00;;;;;;;13.32;7.68;;;;;;;3.29;100.00;100069.31;4217330;34;20043;-74
2022/12/01 10:15:41;;;;;;;15.77;8.45;;;;;;;2.79;100.00;100026.19;4221766;33;20968;-74
2022/12/01 10:18:31;;;;;;;14.48;7.18;;;;;;;3.01;100.00;100061.00;4202580;34;20174;-74
2022/12/01 10:21:34;;;;;;;14.15;8.00;;;;;;;3.11;100.00;100061.59;4205926;34;20042;-74
2022/12/01 10:24:04;;;;;;;14.68;7.37;;;;;;;2.90;100.00;100033.81;4194465;34;20077;-74
2022/12/01 10:26:50;;;;;;;12.90;7.68;;;;;;;2.69;100.00;100052.19;4193215;34;20043;-74
2022/12/01 10:29:29;;;;;;;21.87;7.60;;;;;;;2.86;100.00;100034.31;4197992;34;20046;-74
2022/12/01 10:32:04;;;;;;;13.55;7.03;;;;;;;2.96;100.00;100026.13;4205429;34;20120;-72
2022/12/01 10:34:37;;;;;;;14.23;7.05;;;;;;;3.18;100.00;100051.09;4208192;34;20043;-71
2022/12/01 10:37:05;;;;;;;19.35;7.95;;;;;;;3.11;100.00;100056.28;4210410;34;20061;-71
2022/12/01 10:39:40;;;;;;;16.50;8.05;;;;;;;3.13;100.00;100053.44;4210733;34;20035;-70
2022/12/01 10:42:13;;;;;;;14.13;8.65;;;;;;;2.96;100.00;100012.81;4208435;34;20051;-71
2022/12/01 10:44:41;;;;;;;21.33;9.52;;;;;;;3.08;100.00;100046.00;4223920;33;20209;-71
2022/12/01 10:47:18;;;;;;;16.20;9.20;;;;;;;2.76;100.00;100015.94;4211658;34;20052;-71
2022/12/01 10:49:45;;;;;;;15.73;8.40;;;;;;;3.21;100.00;100040.09;4237735;33;20030;-71
2022/12/01 10:52:32;;;;;;;14.35;7.82;;;;;;;2.88;100.00;100009.19;4229213;33;20102;-71
2022/12/01 10:54:59;;;;;;;22.40;9.27;;;;;;;3.12;100.00;100036.66;4230941;33;20217;-71
2022/12/01 10:57:29;;;;;;;16.85;9.15;;;;;;;3.11;100.00;100039.47;4222006;33;20065;-70
2022/12/01 11:00:00;;;;;;;21.95;9.65;;;;;;;3.20;100.00;100028.59;4210764;34;20078;-71
2022/12/01 11:02:29;;;;;;;19.23;9.80;;;;;;;3.28;100.00;100025.88;4209638;34;20077;-70
2022/12/01 11:05:00;;;;;;;14.25;8.68;;;;;;;3.21;100.00;100019.63;4212899;34;20039;-71
2022/12/01 11:07:31;;;;;;;19.90;9.85;;;;;;;3.05;100.00;99996.62;4215669;33;20380;-70
2022/12/01 11:10:24;;;;;;;17.17;7.62;;;;;;;3.14;100.00;100029.31;4215648;33;20065;-71
2022/12/01 11:12:55;;;;;;;16.80;7.95;;;;;;;3.09;100.00;100029.00;4217562;33;20381;-70
2022/12/01 11:15:28;;;;;;;24.58;9.40;;;;;;;2.68;100.00;99992.00;4200316;34;20039;-70
2022/12/01 11:18:05;;;;;;;15.50;9.05;;;;;;;2.86;100.00;100021.84;4210692;34;20053;-70
2022/12/01 11:20:37;;;;;;;19.67;8.55;;;;;;;2.90;100.00;100028.47;4210288;34;20051;-70
2022/12/01 11:23:23;;;;;;;18.80;9.27;;;;;;;2.96;100.00;100013.63;4222283;33;20046;-71
2022/12/01 11:26:08;;;;;;;17.17;9.25;;;;;;;2.97;100.00;100022.44;4239172;33;20095;-71
2022/12/01 11:28:39;;;;;;;16.98;10.32;;;;;;;3.04;100.00;100024.22;4224262;34;20050;-71
2022/12/01 11:31:09;;;;;;;19.67;10.63;;;;;;;2.77;100.00;100028.19;4224028;34;20027;-71
2022/12/01 11:33:53;;;;;;;19.50;9.25;;;;;;;2.93;100.00;100026.47;4222788;34;20124;-71
2022/12/01 11:36:37;;;;;;;16.95;9.23;;;;;;;2.67;100.00;99996.50;4224005;34;20080;-71
2022/12/01 11:39:04;;;;;;;14.48;7.40;;;;;;;2.80;100.00;100027.84;4221829;34;20039;-70
2022/12/01 11:41:38;;;;;;;16.65;8.35;;;;;;;2.70;100.00;100033.41;4221752;34;20065;-69
2022/12/01 11:44:14;;;;;;;18.20;9.10;;;;;;;2.84;100.00;100023.84;4223893;33;20094;-70
2022/12/01 11:46:42;;;;;;;16.02;8.80;;;;;;;2.83;100.00;100022.19;4232933;33;20068;-70
2022/12/01 11:49:22;;;;;;;15.93;8.57;;;;;;;2.84;100.00;100020.34;4236001;33;20104;-71
2022/12/01 11:51:49;;;;;;;24.83;10.45;;;;;;;2.94;100.00;100028.13;4237688;33;21237;-71
2022/12/01 11:54:22;;;;;;;16.87;9.25;;;;;;;2.79;100.00;100010.22;4238132;33;20039;-71
2022/12/01 11:56:50;;;;;;;20.10;9.07;;;;;;;2.93;100.00;100019.28;4238319;33;20103;-70
2022/12/01 11:59:26;;;;;;;19.70;10.30;;;;;;;2.85;100.00;100009.53;4237747;33;20112;-70
2022/12/01 12:01:59;;;;;;;15.48;8.65;;;;;;;3.02;100.00;100017.44;4403091;28;20376;-70
2022/12/01 12:05:00;;;;;;;18.55;8.65;;;;;;;2.85;100.00;100014.84;4276398;33;20037;-70
2022/12/01 12:07:38;;;;;;;17.37;9.57;;;;;;;2.93;100.00;100015.81;4276124;33;20063;-70
2022/12/01 12:10:54;;;;;;;15.45;9.15;;;;;;;2.78;100.00;100013.91;4268788;33;20403;-70
2022/12/01 12:13:35;;;;;;;15.73;8.73;;;;;;;2.62;100.00;99987.41;4256228;33;20091;-70
2022/12/01 12:16:17;;;;;;;15.23;8.30;;;;;;;2.75;100.00;100014.25;4259180;33;20427;-71
2022/12/01 12:18:49;;;;;;;17.53;9.80;;;;;;;2.78;100.00;100021.88;4258404;33;20088;-70
2022/12/01 12:21:16;;;;;;;17.65;9.95;;;;;;;2.62;100.00;99982.09;4257779;33;20054;-71
2022/12/01 12:23:57;;;;;;;15.25;9.13;;;;;;;2.70;100.00;100016.63;4262531;33;20053;-72
2022/12/01 12:26:26;;;;;;;17.93;10.70;;;;;;;2.72;100.00;100014.59;4261170;33;20042;-71
2022/12/01 12:29:14;;;;;;;16.75;9.50;;;;;;;2.53;100.00;100022.00;4258471;33;20042;-70
2022/12/01 12:32:11;;;;;;;14.70;8.48;;;;;;;2.56;100.00;100014.69;4270477;33;20146;-72
2022/12/01 12:34:37;;;;;;;19.25;9.15;;;;;;;2.58;100.00;100013.50;4261190;33;20062;-70
2022/12/01 12:37:19;;;;;;;18.12;9.60;;;;;;;2.42;100.00;100014.41;4266684;33;20031;-72
2022/12/01 12:40:04;;;;;;;16.48;8.82;;;;;;;2.67;100.00;100016.97;4276193;33;20109;-70
2022/12/01 12:42:46;;;;;;;13.15;7.55;;;;;;;2.47;100.00;99990.81;4278187;33;20078;-71
2022/12/01 12:45:18;;;;;;;16.40;8.75;;;;;;;2.62;100.00;100012.16;4263054;33;20039;-70
2022/12/01 12:48:13;;;;;;;14.32;8.07;;;;;;;2.59;100.00;99971.81;4264574;33;20133;-74
2022/12/01 12:50:48;;;;;;;14.18;8.65;;;;;;;2.70;100.00;100001.47;4259093;33;20380;-74
2022/12/01 12:53:22;;;;;;;15.07;8.27;;;;;;;2.37;100.00;100000.81;4261968;33;20068;-75
2022/12/01 12:55:52;;;;;;;14.63;7.97;;;;;;;2.63;100.00;99997.88;4244411;33;20467;-74
2022/12/01 12:58:28;;;;;;;18.23;8.90;;;;;;;2.47;100.00;100006.75;4255000;33;20549;-74
2022/12/01 13:01:37;;;;;;;15.60;7.87;;;;;;;2.60;100.00;100006.19;4252357;33;20034;-74
2022/12/01 13:04:15;;;;;;;16.35;8.90;;;;;;;2.56;100.00;100009.38;4240325;33;20038;-73
2022/12/01 13:06:50;;;;;;;15.98;8.55;;;;;;;2.58;100.00;100012.69;4246989;33;20109;-74
2022/12/01 13:09:25;;;;;;;14.38;8.15;;;;;;;2.60;100.00;100015.97;4244450;33;20031;-74
2022/12/01 13:12:02;;;;;;;14.57;8.18;;;;;;;2.31;100.00;99998.84;4255911;33;20060;-74
2022/12/01 13:14:40;;;;;;;17.85;8.80;;;;;;;2.25;100.00;99970.28;4252139;33;20484;-75
2022/12/01 13:17:16;;;;;;;17.50;7.85;;;;;;;2.39;100.00;100014.75;4262328;33;20077;-74
2022/12/01 13:19:44;;;;;;;13.52;8.23;;;;;;;2.48;100.00;100011.06;4261338;33;20038;-75
2022/12/01 13:22:13;;;;;;;18.75;9.27;;;;;;;2.49;100.00;100018.03;4263372;33;20042;-74
2022/12/01 13:24:40;;;;;;;18.60;8.95;;;;;;;2.66;100.00;100013.44;4265600;33;20380;-73
2022/12/01 13:27:17;;;;;;;13.85;7.80;;;;;;;2.40;100.00;100016.41;4260020;33;20369;-74
2022/12/01 13:29:49;;;;;;;17.23;8.30;;;;;;;2.69;100.00;100010.44;4265866;33;20046;-74
2022/12/01 13:32:42;;;;;;;;;;;;;;;2.68;100.00;100007.97;4238306;33;20038;-74
2022/12/01 13:35:32;;;;;;;22.25;8.73;;;;;;;2.87;100.00;100002.22;4233951;33;20398;-73